Terminal Aerodrome Forecast
Issued by NWS Austin/San Antonio, TX

Home | Current Version | Previous Version | Text Only | Print | Product List | Glossary On
Versions: 1 2 3 4 5 6 7 8 9 10 11 12 13 14 15 16
000
FTUS44 KEWX 240200 AAA
TAFSAT
TAF AMD
KSAT 240206Z 2402/2506 05004KT P6SM FEW050 SCT090 BKN250
     FM240800 VRB03KT P6SM FEW050 SCT090 BKN250
     FM241600 16006KT P6SM SCT050 BKN250=

USA.gov is the U.S. government's official web portal to all federal, state and local government web resources and services.